Time;durP1;ratioP1;P1;durP2;ratioP2;P2;SDS_P1;SDS_P2;PMS_P1;PMS_P2;Temp;Humidity;BMP_temperature;BMP_pressure;BME280_temperature;BME280_humidity;BME280_pressure;Samples;Min_cycle;Max_cycle;Signal;HPM_P1;HPM_P2
2023/05/27 04:46:33;;;;;;;18.67;13.03;;;;;;;;;;5140996;27;20616;-82
2023/05/27 04:56:51;;;;;;;14.43;12.37;;;;;;;;;;5178108;27;20376;-82
2023/05/27 05:05:09;;;;;;;18.53;13.33;;;10.90;99.90;;;;;;5134988;27;20282;-82
2023/05/27 05:12:13;;;;;;;22.90;14.60;;;;;;;;;;5134213;27;20291;-82
2023/05/27 05:18:41;;;;;;;15.63;13.03;;;;;;;;;;5134917;27;20306;-82
2023/05/27 05:25:37;;;;;;;16.37;12.60;;;;;;;;;;5133642;27;20270;-82
2023/05/27 05:32:13;;;;;;;13.10;10.87;;;;;;;;;;5134233;27;20286;-81
2023/05/27 05:37:40;;;;;;;17.50;12.80;;;;;;;;;;5113653;27;20268;-81
2023/05/27 05:43:34;;;;;;;17.53;12.57;;;11.80;99.90;;;;;;5072981;28;21114;-79
2023/05/27 05:48:08;;;;;;;14.47;11.57;;;12.20;99.90;;;;;;5135119;27;20270;-78
2023/05/27 05:53:07;;;;;;;17.80;10.33;;;12.10;99.90;;;;;;5161237;27;20297;-78
2023/05/27 05:57:55;;;;;;;15.13;9.83;;;;;;;;;;5073685;28;20529;-79
2023/05/27 06:02:46;;;;;;;17.67;10.80;;;12.50;99.90;;;;;;5076218;28;20537;-82
2023/05/27 06:07:39;;;;;;;14.00;10.43;;;;;;;;;;5154351;27;20266;-80
2023/05/27 06:11:27;;;;;;;17.77;11.73;;;;;;;;;;5071690;28;20526;-80
2023/05/27 06:15:22;;;;;;;15.37;11.00;;;13.00;99.90;;;;;;5073108;28;20533;-80
2023/05/27 06:19:19;;;;;;;14.63;11.17;;;13.40;99.90;;;;;;5134859;27;20264;-79
2023/05/27 06:23:14;;;;;;;13.27;9.20;;;13.70;99.90;;;;;;5133696;27;20293;-79
2023/05/27 06:27:10;;;;;;;12.80;9.40;;;;;;;;;;5134064;27;20270;-80
2023/05/27 06:31:11;;;;;;;11.77;8.70;;;14.30;99.90;;;;;;5153958;27;20625;-82
2023/05/27 06:35:06;;;;;;;14.43;9.10;;;14.30;99.90;;;;;;5073252;28;20939;-80
2023/05/27 06:39:06;;;;;;;13.43;8.83;;;14.40;99.90;;;;;;5113779;27;20942;-79
2023/05/27 06:43:06;;;;;;;12.53;8.40;;;14.40;99.90;;;;;;5072323;28;21161;-79
2023/05/27 06:47:03;;;;;;;13.33;8.90;;;14.50;99.90;;;;;;5174831;27;20681;-79
2023/05/27 06:51:06;;;;;;;13.63;7.83;;;14.80;99.90;;;;;;5072842;28;20579;-79
2023/05/27 06:55:04;;;;;;;12.13;8.70;;;15.10;99.90;;;;;;5073289;28;20518;-82
2023/05/27 06:59:00;;;;;;;12.93;8.03;;;15.30;99.90;;;;;;5135913;27;20278;-83
2023/05/27 07:01:26;;;;;;;10.03;7.80;;;15.30;99.90;;;;;;5133029;28;20267;-84
2023/05/27 07:03:52;;;;;;;13.57;8.23;;;15.50;99.90;;;;;;5130834;28;20737;-83
2023/05/27 07:06:17;;;;;;;12.43;8.53;;;15.50;99.90;;;;;;5133139;27;20256;-83
2023/05/27 07:09:01;;;;;;;10.70;8.23;;;15.50;99.90;;;;;;5134833;27;20273;-86
2023/05/27 07:11:26;;;;;;;13.60;8.20;;;15.60;99.90;;;;;;5134605;28;20263;-83
2023/05/27 07:13:52;;;;;;;13.43;8.37;;;15.60;99.90;;;;;;5134584;28;20227;-83
2023/05/27 07:16:19;;;;;;;11.70;8.03;;;15.80;99.90;;;;;;5135190;27;20222;-85
2023/05/27 07:18:44;;;;;;;11.47;7.60;;;15.90;99.90;;;;;;5134901;27;20199;-84
2023/05/27 07:21:10;;;;;;;15.43;8.67;;;16.10;99.90;;;;;;5135733;27;20635;-83
2023/05/27 07:23:36;;;;;;;13.43;8.70;;;16.30;99.90;;;;;;5139623;27;20203;-83
2023/05/27 07:26:01;;;;;;;11.87;7.60;;;16.50;99.90;;;;;;5135339;27;20180;-84
2023/05/27 07:28:27;;;;;;;8.73;7.40;;;16.70;99.90;;;;;;5132463;28;20266;-83
2023/05/27 07:30:53;;;;;;;11.70;7.30;;;16.80;99.90;;;;;;5132934;28;20187;-84
2023/05/27 07:33:18;;;;;;;9.90;8.10;;;17.00;99.90;;;;;;5133456;27;20548;-82
2023/05/27 07:35:44;;;;;;;12.53;8.43;;;17.10;99.90;;;;;;5131838;28;20204;-83
2023/05/27 07:38:10;;;;;;;10.70;7.57;;;17.10;99.90;;;;;;5133075;27;20690;-85
2023/05/27 07:40:36;;;;;;;13.80;7.70;;;17.20;99.90;;;;;;5132746;27;20584;-83
2023/05/27 07:43:01;;;;;;;13.07;7.90;;;17.30;99.90;;;;;;5131762;28;20208;-83
2023/05/27 07:45:28;;;;;;;13.57;8.03;;;17.50;99.90;;;;;;5131608;28;20247;-84
2023/05/27 07:47:53;;;;;;;10.00;7.10;;;17.60;99.90;;;;;;5131098;28;20207;-82
2023/05/27 07:50:19;;;;;;;10.70;7.80;;;17.70;99.90;;;;;;5130649;28;20181;-83
2023/05/27 07:52:45;;;;;;;8.90;6.83;;;17.80;99.90;;;;;;5131468;28;20265;-83
2023/05/27 07:55:11;;;;;;;15.43;7.93;;;17.90;99.90;;;;;;5130837;28;20176;-82
2023/05/27 07:57:36;;;;;;;7.50;6.70;;;18.00;99.90;;;;;;5131736;28;20191;-82
2023/05/27 08:00:06;;;;;;;11.53;7.10;;;18.00;99.90;;;;;;5129755;28;20185;-82
2023/05/27 08:02:31;;;;;;;12.77;7.13;;;18.20;99.90;;;;;;5129528;28;20200;-82
2023/05/27 08:04:57;;;;;;;11.47;7.33;;;18.40;99.90;;;;;;5132066;27;20184;-83
2023/05/27 08:07:23;;;;;;;14.90;8.13;;;18.50;99.90;;;;;;5131971;27;20303;-82
2023/05/27 08:09:48;;;;;;;9.70;6.47;;;18.50;99.90;;;;;;5130537;28;20264;-81
2023/05/27 08:12:14;;;;;;;11.50;6.60;;;18.60;99.90;;;;;;5132059;27;20204;-81
2023/05/27 08:14:40;;;;;;;16.83;7.73;;;18.60;99.90;;;;;;5130985;28;20179;-80
2023/05/27 08:17:06;;;;;;;10.10;6.53;;;18.50;99.90;;;;;;5132671;27;20527;-83
2023/05/27 08:19:32;;;;;;;12.40;7.27;;;18.60;99.90;;;;;;5124060;27;20672;-85
2023/05/27 08:21:58;;;;;;;12.87;6.90;;;18.80;99.90;;;;;;5118279;28;20202;-81
2023/05/27 08:24:24;;;;;;;9.53;6.83;;;19.00;99.90;;;;;;5117997;28;20190;-82
2023/05/27 08:26:50;;;;;;;11.93;6.73;;;19.30;99.90;;;;;;5118467;28;20179;-84
2023/05/27 08:29:16;;;;;;;10.53;6.77;;;19.60;99.90;;;;;;5118979;28;20262;-84
2023/05/27 08:31:41;;;;;;;11.77;7.50;;;19.90;99.90;;;;;;5118582;28;20687;-81
2023/05/27 08:34:08;;;;;;;12.03;6.80;;;20.10;99.90;;;;;;5120205;27;20168;-84
2023/05/27 08:36:33;;;;;;;9.17;7.13;;;19.90;99.90;;;;;;5118828;28;20176;-84
2023/05/27 08:39:00;;;;;;;9.43;6.73;;;20.00;99.90;;;;;;5118688;28;20180;-81
2023/05/27 08:41:27;;;;;;;12.17;6.57;;;19.90;99.90;;;;;;5119971;28;20176;-78
2023/05/27 08:43:53;;;;;;;9.90;6.43;;;19.90;99.90;;;;;;5123610;28;20221;-77
2023/05/27 08:46:20;;;;;;;11.63;7.17;;;20.10;99.90;;;;;;5118404;28;20542;-81
2023/05/27 08:48:46;;;;;;;7.93;6.03;;;20.20;99.90;;;;;;5118067;28;20665;-83
2023/05/27 08:51:16;;;;;;;9.37;6.03;;;20.30;99.90;;;;;;5118549;28;20184;-80
2023/05/27 08:53:42;;;;;;;12.33;5.90;;;20.30;99.90;;;;;;5117182;28;20279;-83
2023/05/27 08:56:12;;;;;;;11.53;6.57;;;20.30;99.90;;;;;;5118662;28;20206;-81
2023/05/27 08:58:39;;;;;;;11.33;6.10;;;20.30;99.90;;;;;;5118892;28;20695;-83
2023/05/27 09:01:05;;;;;;;9.63;6.80;;;20.40;99.90;;;;;;5117251;28;20183;-79
2023/05/27 09:03:31;;;;;;;8.93;5.97;;;20.70;99.90;;;;;;5118609;28;20252;-81
2023/05/27 09:05:56;;;;;;;8.37;6.20;;;20.90;99.90;;;;;;5117766;28;20639;-81
2023/05/27 09:08:22;;;;;;;7.43;5.40;;;21.10;99.90;;;;;;5116952;28;20258;-82
2023/05/27 09:10:48;;;;;;;8.67;5.47;;;21.10;99.90;;;;;;5118561;28;20241;-81
2023/05/27 09:13:24;;;;;;;8.40;5.33;;;21.30;99.90;;;;;;5118739;28;20192;-78
2023/05/27 09:15:58;;;;;;;9.17;5.60;;;21.40;99.90;;;;;;5116660;28;20173;-79
2023/05/27 09:18:32;;;;;;;8.77;5.60;;;21.60;99.90;;;;;;5117476;28;20305;-79
2023/05/27 09:20:58;;;;;;;8.63;5.67;;;21.70;99.90;;;;;;5117277;28;20261;-80
2023/05/27 09:23:25;;;;;;;10.30;5.70;;;21.70;99.90;;;;;;5117876;28;20245;-79
2023/05/27 09:25:51;;;;;;;12.43;5.70;;;22.10;99.90;;;;;;5115948;28;20183;-79
2023/05/27 09:28:25;;;;;;;10.23;5.17;;;22.30;99.90;;;;;;5117688;28;20678;-78
2023/05/27 09:31:07;;;;;;;8.47;4.93;;;22.40;99.90;;;;;;5116564;28;20195;-79
2023/05/27 09:33:35;;;;;;;10.13;5.77;;;22.60;99.90;;;;;;5117912;28;20199;-79
2023/05/27 09:36:03;;;;;;;11.33;5.43;;;22.60;99.90;;;;;;5116481;28;20180;-80
2023/05/27 09:38:33;;;;;;;7.20;5.00;;;22.60;99.90;;;;;;5119313;28;20287;-81
2023/05/27 09:41:00;;;;;;;6.57;4.93;;;22.80;99.90;;;;;;5119443;28;20172;-81
2023/05/27 09:43:26;;;;;;;7.07;5.07;;;22.90;99.90;;;;;;5118883;28;20198;-79
2023/05/27 09:46:01;;;;;;;9.13;5.10;;;22.70;99.90;;;;;;5119099;28;20229;-80
2023/05/27 09:48:31;;;;;;;6.83;5.30;;;22.70;99.90;;;;;;5122858;28;20209;-79
2023/05/27 09:50:58;;;;;;;7.70;5.20;;;22.70;99.90;;;;;;5119914;28;20179;-80
2023/05/27 09:53:26;;;;;;;10.27;5.70;;;22.90;99.90;;;;;;5118347;28;20194;-81
2023/05/27 09:55:55;;;;;;;8.20;4.90;;;23.10;99.90;;;;;;5118739;28;20554;-78
2023/05/27 09:58:22;;;;;;;7.40;5.03;;;23.30;98.60;;;;;;5119887;28;20187;-81
2023/05/27 10:00:49;;;;;;;10.73;5.97;;;23.30;98.50;;;;;;5120997;28;20198;-80
2023/05/27 10:03:17;;;;;;;9.80;5.50;;;23.60;99.70;;;;;;5122846;28;20206;-80
2023/05/27 10:05:44;;;;;;;10.17;5.53;;;23.60;98.10;;;;;;5118091;28;20194;-82
2023/05/27 10:08:12;;;;;;;21.10;5.67;;;23.70;97.20;;;;;;5116592;28;20207;-80
2023/05/27 10:10:38;;;;;;;6.53;5.00;;;23.50;94.90;;;;;;5117589;28;20183;-79
2023/05/27 10:13:04;;;;;;;6.20;4.77;;;23.60;95.80;;;;;;5115798;28;20200;-78
2023/05/27 10:15:31;;;;;;;9.77;5.77;;;23.60;93.90;;;;;;5118139;28;20170;-79
2023/05/27 10:17:58;;;;;;;10.07;5.33;;;23.60;94.50;;;;;;5116657;28;20257;-77
2023/05/27 10:20:37;;;;;;;10.40;5.77;;;23.70;96.60;;;;;;5114675;28;20176;-78
2023/05/27 10:23:30;;;;;;;8.40;5.33;;;23.70;94.20;;;;;;5116133;28;20196;-78
2023/05/27 10:26:01;;;;;;;8.90;4.73;;;23.80;95.60;;;;;;5113496;28;20187;-80
2023/05/27 10:28:31;;;;;;;11.70;5.03;;;24.00;95.70;;;;;;5116546;28;20195;-78
2023/05/27 10:31:07;;;;;;;10.07;5.67;;;24.10;94.90;;;;;;5117270;28;20629;-78
2023/05/27 10:33:41;;;;;;;22.27;5.70;;;24.10;94.20;;;;;;5117455;28;20193;-78
2023/05/27 10:36:11;;;;;;;11.70;5.10;;;24.20;93.20;;;;;;5115895;28;20176;-79
2023/05/27 10:38:38;;;;;;;13.80;4.73;;;24.30;93.30;;;;;;5117175;28;20178;-81
2023/05/27 10:41:06;;;;;;;6.67;4.80;;;24.30;93.70;;;;;;5117134;28;20176;-83
2023/05/27 10:43:33;;;;;;;10.50;5.33;;;24.00;92.20;;;;;;5116012;28;20231;-83
2023/05/27 10:46:17;;;;;;;7.30;4.83;;;24.10;96.40;;;;;;5117689;28;20167;-85
2023/05/27 10:48:42;;;;;;;13.43;5.63;;;24.70;98.00;;;;;;5117911;28;20322;-83
2023/05/27 10:51:08;;;;;;;8.93;4.53;;;24.80;91.10;;;;;;5116469;28;20187;-82
2023/05/27 10:53:37;;;;;;;8.90;4.77;;;24.90;92.60;;;;;;5118985;28;20264;-84
2023/05/27 10:56:04;;;;;;;10.63;4.77;;;24.80;92.80;;;;;;5119984;28;20270;-83
2023/05/27 10:58:34;;;;;;;8.73;4.63;;;24.80;91.70;;;;;;5116368;28;20645;-82
2023/05/27 11:01:07;;;;;;;7.67;4.87;;;24.80;91.20;;;;;;5118732;28;20188;-86
2023/05/27 11:03:32;;;;;;;9.20;4.90;;;24.60;90.40;;;;;;5116604;28;20215;-83
2023/05/27 11:06:06;;;;;;;7.87;4.80;;;24.50;91.80;;;;;;5116893;28;20184;-86
2023/05/27 11:08:33;;;;;;;6.00;4.70;;;24.70;91.00;;;;;;5118929;28;20207;-84
2023/05/27 11:11:02;;;;;;;10.73;5.10;;;24.90;89.70;;;;;;5118361;28;20221;-84
2023/05/27 11:13:38;;;;;;;7.37;4.70;;;24.90;89.50;;;;;;5117720;28;20198;-84
2023/05/27 11:16:05;;;;;;;8.30;5.20;;;25.10;90.30;;;;;;5118552;28;20180;-82
2023/05/27 11:18:41;;;;;;;7.63;4.33;;;25.30;91.40;;;;;;5121920;28;20180;-85
2023/05/27 11:21:09;;;;;;;7.93;4.43;;;25.60;85.00;;;;;;5126613;28;20182;-84
2023/05/27 11:23:48;;;;;;;8.30;4.83;;;25.60;85.70;;;;;;5121758;28;20199;-85
2023/05/27 11:26:25;;;;;;;10.40;5.57;;;25.90;89.00;;;;;;5119628;28;20164;-85
2023/05/27 11:28:51;;;;;;;9.93;5.00;;;26.30;83.20;;;;;;5122226;28;20213;-85
2023/05/27 11:31:21;;;;;;;9.90;5.00;;;26.00;84.40;;;;;;5119019;28;20522;-85
2023/05/27 11:33:50;;;;;;;9.10;4.93;;;26.20;86.60;;;;;;5120641;28;20235;-85
2023/05/27 11:36:17;;;;;;;9.23;4.53;;;26.60;81.80;;;;;;5121536;28;20226;-85
2023/05/27 11:38:54;;;;;;;7.73;4.60;;;26.80;81.00;;;;;;5121182;28;20190;-84
2023/05/27 11:41:22;;;;;;;8.27;5.20;;;26.90;83.30;;;;;;5120426;28;20187;-84
2023/05/27 11:43:51;;;;;;;9.67;5.30;;;26.80;75.70;;;;;;5120859;28;20281;-85
2023/05/27 11:46:17;;;;;;;10.00;4.80;;;27.10;78.20;;;;;;5121283;28;20246;-85
2023/05/27 11:48:44;;;;;;;9.93;4.47;;;27.20;78.10;;;;;;5121865;28;20604;-83
2023/05/27 11:51:11;;;;;;;9.60;4.37;;;27.40;76.40;;;;;;5120144;28;20243;-85
2023/05/27 11:53:44;;;;;;;9.87;4.53;;;27.80;78.60;;;;;;5120907;28;20208;-86
2023/05/27 11:56:10;;;;;;;8.77;4.90;;;27.70;77.00;;;;;;5122996;28;20175;-86
2023/05/27 11:58:36;;;;;;;11.43;4.87;;;28.00;76.90;;;;;;5122191;28;20209;-84
2023/05/27 12:01:03;;;;;;;6.50;4.33;;;28.30;75.90;;;;;;5123603;28;20189;-85
2023/05/27 12:03:29;;;;;;;6.77;4.70;;;28.10;77.00;;;;;;5123399;28;20688;-86
2023/05/27 12:05:55;;;;;;;8.00;4.53;;;28.20;71.20;;;;;;5122759;28;20180;-85
2023/05/27 12:08:21;;;;;;;5.60;4.17;;;28.50;76.30;;;;;;5123789;28;20208;-85
2023/05/27 12:10:50;;;;;;;10.47;4.90;;;28.90;74.90;;;;;;5127673;28;20202;-85
2023/05/27 12:13:15;;;;;;;9.27;5.00;;;28.90;71.70;;;;;;5124556;28;20670;-85
2023/05/27 12:15:41;;;;;;;8.57;4.20;;;29.00;71.40;;;;;;5123358;28;20177;-85
2023/05/27 12:18:07;;;;;;;8.60;4.70;;;29.20;70.20;;;;;;5122833;28;20193;-84
2023/05/27 12:20:33;;;;;;;7.40;4.10;;;28.90;68.60;;;;;;5120215;28;20651;-85
2023/05/27 12:22:58;;;;;;;6.23;4.60;;;28.90;69.90;;;;;;5121183;28;20205;-84
2023/05/27 12:25:24;;;;;;;10.23;4.90;;;28.80;80.10;;;;;;5121022;28;20207;-84
2023/05/27 12:27:50;;;;;;;9.07;4.87;;;28.90;67.60;;;;;;5119990;28;20212;-83
2023/05/27 12:30:15;;;;;;;8.67;5.10;;;28.50;67.10;;;;;;5121123;28;20177;-85
2023/05/27 12:32:41;;;;;;;7.13;4.33;;;28.10;71.90;;;;;;5122365;28;20206;-85
2023/05/27 12:35:08;;;;;;;7.17;4.43;;;28.00;71.00;;;;;;5123665;28;20185;-85
2023/05/27 12:37:33;;;;;;;8.97;4.63;;;28.40;69.50;;;;;;5124920;28;20180;-83
2023/05/27 12:39:59;;;;;;;6.87;4.40;;;28.80;69.20;;;;;;5129389;28;20317;-85
2023/05/27 12:42:25;;;;;;;7.23;4.20;;;29.20;68.30;;;;;;5121294;28;20255;-78
2023/05/27 12:44:50;;;;;;;5.97;4.03;;;29.50;70.50;;;;;;5118297;28;20592;-78
2023/05/27 12:47:16;;;;;;;6.53;4.60;;;28.90;66.90;;;;;;5118583;28;20725;-78
2023/05/27 12:49:42;;;;;;;13.93;4.87;;;28.90;67.60;;;;;;5118202;28;20257;-81
2023/05/27 12:52:08;;;;;;;8.97;5.00;;;29.10;69.70;;;;;;5119145;28;20581;-83
2023/05/27 12:54:34;;;;;;;8.43;4.50;;;29.70;66.10;;;;;;5121225;28;20221;-82
2023/05/27 12:57:01;;;;;;;7.27;4.50;;;29.90;68.60;;;;;;5122661;28;20181;-81
2023/05/27 12:59:27;;;;;;;7.10;4.27;;;28.70;67.60;;;;;;5117989;28;20600;-80
2023/05/27 13:01:53;;;;;;;8.90;4.77;;;28.50;68.20;;;;;;5116911;28;20174;-80
2023/05/27 13:04:19;;;;;;;7.97;4.30;;;28.80;66.30;;;;;;5119465;28;20182;-80
2023/05/27 13:06:45;;;;;;;57.70;52.50;;;28.40;66.30;;;;;;5117405;28;20181;-79
2023/05/27 13:09:11;;;;;;;8.77;4.80;;;27.80;70.80;;;;;;5119389;28;20180;-86
2023/05/27 13:11:36;;;;;;;25.43;5.80;;;27.90;66.70;;;;;;5115743;28;20177;-87
2023/05/27 13:14:02;;;;;;;29.93;6.27;;;28.20;70.70;;;;;;5116110;28;20185;-84
2023/05/27 13:16:28;;;;;;;39.50;6.63;;;28.50;68.30;;;;;;5116713;28;20176;-84
2023/05/27 13:18:54;;;;;;;32.17;5.93;;;28.40;66.30;;;;;;5117392;28;20275;-84
2023/05/27 13:21:20;;;;;;;18.53;5.10;;;28.30;68.10;;;;;;5116480;28;20220;-86
2023/05/27 13:23:46;;;;;;;16.57;5.20;;;28.50;65.90;;;;;;5117550;28;20201;-86
2023/05/27 13:26:11;;;;;;;99.77;10.73;;;28.50;66.10;;;;;;5117611;28;20180;-86
2023/05/27 13:28:37;;;;;;;16.83;6.00;;;28.30;67.20;;;;;;5117377;28;20205;-85
2023/05/27 13:31:03;;;;;;;44.73;6.77;;;28.40;66.80;;;;;;5116798;28;20179;-87
2023/05/27 13:33:29;;;;;;;8.47;4.67;;;27.80;65.20;;;;;;5118000;28;20194;-86
2023/05/27 13:35:55;;;;;;;23.30;6.03;;;26.10;67.60;;;;;;5116809;28;20178;-83
2023/05/27 13:38:20;;;;;;;27.90;6.70;;;25.60;70.70;;;;;;5117426;28;20188;-84
2023/05/27 13:40:46;;;;;;;25.63;6.87;;;26.10;70.90;;;;;;5119199;28;20247;-84
2023/05/27 13:43:12;;;;;;;65.03;7.57;;;26.80;73.40;;;;;;5120400;28;20199;-85
2023/05/27 13:45:37;;;;;;;75.33;8.43;;;27.50;67.60;;;;;;5121193;28;20172;-84
2023/05/27 13:48:03;;;;;;;27.13;6.13;;;27.90;69.40;;;;;;5120158;28;20236;-82
2023/05/27 13:50:31;;;;;;;67.57;8.57;;;28.10;73.30;;;;;;5119836;28;20711;-83
2023/05/27 13:52:56;;;;;;;28.20;6.10;;;28.40;64.40;;;;;;5119598;28;20303;-83
2023/05/27 13:55:22;;;;;;;36.00;7.23;;;28.20;66.00;;;;;;5121596;28;20633;-84
2023/05/27 13:57:48;;;;;;;10.70;5.27;;;28.20;66.80;;;;;;5118366;28;20548;-83
2023/05/27 14:00:15;;;;;;;20.47;5.20;;;28.20;66.40;;;;;;5115526;28;20646;-82
2023/05/27 14:02:41;;;;;;;58.50;7.40;;;28.10;65.30;;;;;;5114970;28;20195;-83
2023/05/27 14:05:07;;;;;;;46.37;7.33;;;28.30;64.70;;;;;;5115175;28;20181;-84
2023/05/27 14:07:32;;;;;;;80.53;9.57;;;27.80;64.10;;;;;;5115211;28;20741;-82
2023/05/27 14:09:58;;;;;;;62.40;10.00;;;27.90;76.90;;;;;;5116905;28;20203;-83
2023/05/27 14:12:25;;;;;;;53.83;7.93;;;28.50;66.10;;;;;;5115413;28;20219;-85
2023/05/27 14:14:51;;;;;;;30.27;6.20;;;28.90;66.10;;;;;;5116120;27;20175;-82
2023/05/27 14:17:16;;;;;;;25.40;6.53;;;28.90;65.50;;;;;;5116180;28;20169;-84
2023/05/27 14:19:42;;;;;;;38.57;8.23;;;28.60;63.20;;;;;;5114728;28;20271;-83
2023/05/27 14:22:08;;;;;;;60.17;7.20;;;28.10;66.90;;;;;;5116276;28;20224;-83
2023/05/27 14:24:34;;;;;;;80.90;11.57;;;28.30;69.50;;;;;;5115172;28;20181;-82
2023/05/27 14:27:01;;;;;;;24.80;5.83;;;28.60;64.60;;;;;;5114831;28;20171;-83
2023/05/27 14:29:26;;;;;;;37.97;7.33;;;28.60;63.00;;;;;;5114787;28;20647;-84
2023/05/27 14:31:52;;;;;;;56.63;8.80;;;28.50;64.50;;;;;;5114331;28;20205;-83
2023/05/27 14:34:18;;;;;;;69.43;8.03;;;28.50;63.30;;;;;;5115965;28;20173;-84
2023/05/27 14:36:43;;;;;;;30.17;6.37;;;28.50;65.70;;;;;;5116550;28;20179;-82
2023/05/27 14:39:09;;;;;;;24.37;6.57;;;28.60;63.50;;;;;;5115741;28;20173;-85
2023/05/27 14:41:35;;;;;;;10.50;4.30;;;28.60;62.00;;;;;;5114399;28;20224;-84
2023/05/27 14:44:01;;;;;;;11.03;4.77;;;28.10;66.20;;;;;;5115806;28;20262;-84
2023/05/27 14:46:26;;;;;;;7.77;3.93;;;28.00;62.80;;;;;;5115886;28;20176;-85
2023/05/27 14:48:52;;;;;;;12.43;4.73;;;27.80;62.30;;;;;;5115696;28;20208;-82
2023/05/27 14:51:18;;;;;;;8.83;4.80;;;27.80;66.40;;;;;;5115276;28;20255;-83
2023/05/27 14:53:43;;;;;;;11.03;4.23;;;27.70;63.10;;;;;;5116467;28;20194;-84
2023/05/27 14:56:09;;;;;;;16.07;4.40;;;27.50;63.10;;;;;;5116558;28;20170;-82
2023/05/27 14:58:35;;;;;;;10.80;4.40;;;27.60;63.60;;;;;;5116582;28;20226;-80
2023/05/27 15:01:00;;;;;;;9.20;4.20;;;27.80;64.10;;;;;;5115941;28;20173;-83
2023/05/27 15:03:29;;;;;;;8.80;4.87;;;27.90;62.60;;;;;;5114928;28;20596;-84
2023/05/27 15:05:57;;;;;;;6.37;4.00;;;27.80;61.60;;;;;;5116316;28;20172;-84
2023/05/27 15:08:24;;;;;;;6.67;4.33;;;27.80;62.90;;;;;;5116319;28;20204;-85
2023/05/27 15:10:50;;;;;;;14.93;4.53;;;27.70;61.70;;;;;;5115904;28;20175;-84
2023/05/27 15:13:16;;;;;;;9.83;4.03;;;27.60;60.70;;;;;;5122499;28;20191;-83
2023/05/27 15:15:43;;;;;;;15.27;4.80;;;27.30;61.50;;;;;;5115165;28;20174;-80
2023/05/27 15:18:09;;;;;;;10.13;4.30;;;27.20;60.70;;;;;;5115460;28;20172;-83
2023/05/27 15:20:35;;;;;;;5.57;3.80;;;27.00;61.70;;;;;;5115889;28;20314;-82
2023/05/27 15:23:01;;;;;;;6.07;4.10;;;27.10;62.70;;;;;;5116182;28;20200;-83
2023/05/27 15:25:26;;;;;;;10.63;4.40;;;27.30;61.50;;;;;;5115294;28;20609;-81
2023/05/27 15:27:52;;;;;;;9.50;4.27;;;27.20;62.00;;;;;;5114551;28;20562;-83
2023/05/27 15:30:18;;;;;;;6.43;3.97;;;26.50;60.00;;;;;;5117229;28;20169;-81
2023/05/27 15:32:45;;;;;;;8.57;4.07;;;26.30;62.50;;;;;;5119776;28;20204;-81
2023/05/27 15:35:11;;;;;;;8.53;3.97;;;26.00;62.70;;;;;;5120859;28;20189;-80
2023/05/27 15:37:37;;;;;;;12.83;4.67;;;25.80;64.00;;;;;;5120303;28;20179;-82
2023/05/27 15:40:06;;;;;;;7.83;4.17;;;25.70;63.30;;;;;;5122004;28;21000;-81
2023/05/27 15:42:32;;;;;;;14.93;4.50;;;25.60;62.80;;;;;;5119847;28;20636;-80
2023/05/27 15:44:58;;;;;;;9.47;3.97;;;25.70;62.30;;;;;;5121540;28;20188;-82
2023/05/27 15:47:23;;;;;;;7.93;4.30;;;25.40;63.10;;;;;;5120030;28;20585;-83
2023/05/27 15:49:49;;;;;;;9.37;4.90;;;25.40;61.90;;;;;;5121576;28;20172;-84
2023/05/27 15:52:16;;;;;;;9.93;4.20;;;25.50;62.80;;;;;;5120568;28;20199;-80
2023/05/27 15:54:42;;;;;;;7.40;4.13;;;25.60;67.40;;;;;;5118251;28;20263;-84
2023/05/27 15:57:08;;;;;;;10.20;4.23;;;25.80;61.00;;;;;;5118584;28;20630;-82
2023/05/27 15:59:38;;;;;;;17.73;4.70;;;25.60;64.00;;;;;;5119595;28;20168;-83
2023/05/27 16:02:05;;;;;;;14.07;4.67;;;25.80;62.10;;;;;;5118944;28;20218;-83
2023/05/27 16:04:31;;;;;;;8.57;4.70;;;25.80;62.50;;;;;;5118860;28;20186;-84
2023/05/27 16:06:56;;;;;;;7.87;4.00;;;25.60;62.30;;;;;;5119544;28;20188;-84
2023/05/27 16:09:22;;;;;;;9.53;4.73;;;25.50;62.80;;;;;;5121146;28;20177;-84
2023/05/27 16:11:49;;;;;;;8.87;4.20;;;25.20;61.50;;;;;;5118354;28;20644;-84
2023/05/27 16:14:14;;;;;;;6.83;4.10;;;24.90;62.30;;;;;;5118901;28;20172;-84
2023/05/27 16:16:40;;;;;;;10.10;4.47;;;24.40;62.70;;;;;;5118278;28;20176;-84
2023/05/27 16:19:06;;;;;;;8.23;4.97;;;24.00;63.90;;;;;;5121310;28;20574;-83
2023/05/27 16:21:32;;;;;;;13.93;7.00;;;23.70;64.00;;;;;;5121436;28;20172;-84
2023/05/27 16:23:57;;;;;;;16.70;8.87;;;23.60;65.80;;;;;;5120719;28;20279;-85
2023/05/27 16:26:23;;;;;;;198.60;171.93;;;23.20;65.60;;;;;;5121371;28;20271;-84
2023/05/27 16:28:49;;;;;;;14.90;9.10;;;22.60;65.50;;;;;;5121735;28;20207;-83
2023/05/27 16:31:16;;;;;;;29.77;23.87;;;22.20;67.70;;;;;;5123310;28;20182;-83
2023/05/27 16:33:42;;;;;;;39.27;29.07;;;21.90;68.80;;;;;;5119073;28;20638;-83
2023/05/27 16:36:07;;;;;;;36.13;25.53;;;21.60;69.50;;;;;;5118058;28;20324;-79
2023/05/27 16:38:34;;;;;;;11.07;8.03;;;21.30;70.00;;;;;;5119065;28;20819;-82
2023/05/27 16:40:59;;;;;;;14.07;7.83;;;21.10;70.60;;;;;;5116511;28;20176;-80
2023/05/27 16:43:26;;;;;;;9.13;5.53;;;20.90;71.50;;;;;;5118716;28;20179;-81
2023/05/27 16:45:52;;;;;;;13.03;4.40;;;20.70;71.30;;;;;;5120015;28;20237;-82
2023/05/27 16:48:18;;;;;;;12.87;6.50;;;20.70;72.30;;;;;;5120024;28;20223;-84
2023/05/27 16:50:44;;;;;;;18.23;9.43;;;20.60;72.50;;;;;;5118227;28;20193;-83
2023/05/27 16:53:10;;;;;;;57.57;42.50;;;20.50;73.80;;;;;;5119734;28;20255;-78
2023/05/27 16:55:35;;;;;;;11.97;6.73;;;20.50;72.80;;;;;;5120113;28;20241;-82
2023/05/27 16:58:01;;;;;;;10.27;6.40;;;20.40;71.80;;;;;;5119435;28;20520;-83
2023/05/27 17:00:28;;;;;;;84.83;66.00;;;20.40;72.80;;;;;;5119089;28;20176;-82
2023/05/27 17:02:54;;;;;;;98.87;84.87;;;20.30;73.70;;;;;;5120292;28;20676;-83
2023/05/27 17:25:11;;;;;;;50.37;35.83;;;19.60;73.90;;;;;;5090201;28;20558;-85
2023/05/27 17:36:53;;;;;;;75.47;50.40;;;19.40;74.00;;;;;;5120362;27;20579;-82
2023/05/27 17:47:56;;;;;;;24.87;14.53;;;19.10;76.30;;;;;;5078657;28;20528;-80
2023/05/27 18:01:24;;;;;;;105.90;59.60;;;18.70;76.60;;;;;;5077200;28;20534;-80
